createdAt,value
2023-04-23T00:00:15.036Z,10.20
2023-04-23T00:03:17.127Z,10.60
2023-04-23T00:06:19.021Z,8.82
2023-04-23T00:09:20.875Z,8.57
2023-04-23T00:12:22.985Z,8.63
2023-04-23T00:15:25.334Z,10.65
2023-04-23T00:18:27.202Z,9.10
2023-04-23T00:21:29.261Z,11.32
2023-04-23T00:24:32.158Z,13.60
2023-04-23T00:27:33.977Z,15.13
2023-04-23T00:30:35.861Z,11.85
2023-04-23T00:33:38.685Z,15.88
2023-04-23T00:36:40.499Z,12.90
2023-04-23T00:39:45.343Z,15.00
2023-04-23T00:42:47.433Z,18.23
2023-04-23T00:45:49.311Z,14.95
2023-04-23T00:48:51.064Z,27.40
2023-04-23T00:51:52.860Z,32.50
2023-04-23T00:54:57.560Z,31.67
2023-04-23T00:57:59.327Z,33.93
2023-04-23T01:01:02.915Z,40.85
2023-04-23T01:04:05.055Z,40.95
2023-04-23T01:07:07.747Z,42.88
2023-04-23T01:10:09.908Z,39.17
2023-04-23T01:13:15.891Z,39.73
2023-04-23T01:16:17.828Z,38.75
2023-04-23T01:19:19.906Z,31.98
2023-04-23T01:22:21.747Z,28.08
2023-04-23T01:25:23.564Z,18.85
2023-04-23T01:28:25.433Z,23.33
2023-04-23T01:31:28.018Z,14.25
2023-04-23T01:34:30.902Z,11.55
2023-04-23T01:37:32.782Z,10.07
2023-04-23T01:40:34.536Z,10.75
2023-04-23T01:43:36.341Z,11.23
2023-04-23T01:46:38.282Z,11.63
2023-04-23T01:49:41.414Z,8.80
2023-04-23T01:52:44.987Z,12.25
2023-04-23T01:55:49.093Z,11.63
2023-04-23T01:58:51.951Z,15.23
2023-04-23T02:01:53.869Z,16.13
2023-04-23T02:04:55.820Z,12.05
2023-04-23T02:07:57.863Z,13.55
2023-04-23T02:10:59.691Z,14.57
2023-04-23T02:14:02.073Z,17.97
2023-04-23T02:17:03.968Z,15.55
2023-04-23T02:20:08.079Z,16.52
2023-04-23T02:23:09.929Z,15.65
2023-04-23T02:26:11.963Z,13.18
2023-04-23T02:29:13.652Z,11.27
2023-04-23T02:32:15.731Z,10.73
2023-04-23T02:35:17.579Z,9.75
2023-04-23T02:38:19.668Z,9.02
2023-04-23T02:41:26.150Z,9.95
2023-04-23T02:44:27.901Z,9.63
2023-04-23T02:47:31.480Z,12.13
2023-04-23T02:50:33.505Z,8.68
2023-04-23T02:53:35.250Z,9.27
2023-04-23T02:56:37.165Z,9.82
2023-04-23T02:59:38.971Z,8.73
2023-04-23T03:02:41.334Z,12.18
2023-04-23T03:05:43.270Z,12.82
2023-04-23T03:08:45.058Z,15.15
2023-04-23T03:11:49.762Z,12.23
2023-04-23T03:14:51.473Z,17.67
2023-04-23T03:17:54.046Z,13.32
2023-04-23T03:20:55.854Z,13.05
2023-04-23T03:23:57.757Z,14.05
2023-04-23T03:27:03.841Z,15.85
2023-04-23T03:30:08.145Z,15.53
2023-04-23T03:33:09.941Z,15.10
2023-04-23T03:36:11.848Z,16.83
2023-04-23T03:39:13.621Z,17.20
2023-04-23T03:42:18.763Z,15.85
2023-04-23T03:45:20.776Z,13.07
2023-04-23T03:48:22.534Z,13.32
2023-04-23T03:51:24.327Z,15.45
2023-04-23T03:54:26.819Z,15.48
2023-04-23T03:57:28.998Z,15.70
2023-04-23T04:00:31.189Z,15.23
2023-04-23T04:03:33.135Z,13.82
2023-04-23T04:06:35.156Z,14.00
2023-04-23T04:09:37.034Z,14.20
2023-04-23T04:12:40.034Z,12.63
2023-04-23T04:15:41.819Z,13.80
2023-04-23T04:18:43.657Z,14.85
2023-04-23T04:21:45.729Z,13.95
2023-04-23T04:24:47.837Z,12.57
2023-04-23T04:27:52.865Z,13.13
2023-04-23T04:30:55.010Z,14.13
2023-04-23T04:33:57.540Z,11.93
2023-04-23T04:36:59.278Z,13.88
2023-04-23T04:40:01.690Z,12.90
2023-04-23T04:43:08.705Z,14.53
2023-04-23T04:46:11.941Z,14.80
2023-04-23T04:49:14.059Z,13.43
2023-04-23T04:52:15.974Z,14.65
2023-04-23T04:55:17.962Z,14.63
2023-04-23T04:58:23.687Z,13.33
2023-04-23T05:01:26.853Z,11.80
2023-04-23T05:04:28.891Z,11.23
2023-04-23T05:07:30.996Z,9.82
2023-04-23T05:10:33.039Z,10.10
2023-04-23T05:13:37.679Z,10.87
2023-04-23T05:16:39.905Z,9.87
2023-04-23T05:19:41.719Z,12.00
2023-04-23T05:22:43.585Z,11.07
2023-04-23T05:25:45.538Z,11.25
2023-04-23T05:28:47.378Z,10.07
2023-04-23T05:31:49.246Z,9.73
2023-04-23T05:34:51.194Z,10.95
2023-04-23T05:37:53.051Z,9.50
2023-04-23T05:40:54.886Z,9.27
2023-04-23T05:43:56.640Z,9.40
2023-04-23T05:46:58.490Z,9.30
2023-04-23T05:50:01.838Z,11.45
2023-04-23T05:53:03.783Z,8.23
2023-04-23T05:56:05.872Z,8.45
2023-04-23T05:59:10.912Z,9.50
2023-04-23T06:02:12.716Z,8.87
2023-04-23T06:05:14.799Z,8.98
2023-04-23T06:08:16.906Z,9.13
2023-04-23T06:11:18.862Z,9.20
2023-04-23T06:14:24.140Z,7.67
2023-04-23T06:17:25.956Z,7.93
2023-04-23T06:20:27.781Z,7.85
2023-04-23T06:23:29.849Z,8.30
2023-04-23T06:26:33.257Z,8.38
2023-04-23T06:29:38.193Z,7.83
2023-04-23T06:32:39.995Z,8.27
2023-04-23T06:35:41.991Z,8.50
2023-04-23T06:38:44.859Z,8.65
2023-04-23T06:41:46.808Z,8.35
2023-04-23T06:44:53.054Z,6.63
2023-04-23T06:47:54.860Z,7.77
2023-04-23T06:50:56.642Z,9.07
2023-04-23T06:53:59.242Z,7.25
2023-04-23T06:57:02.066Z,7.75
2023-04-23T07:00:06.627Z,7.93
2023-04-23T07:03:08.884Z,7.60
2023-04-23T07:06:12.050Z,9.45
2023-04-23T07:09:13.914Z,8.27
2023-04-23T07:12:15.735Z,7.85
2023-04-23T07:15:21.330Z,8.23
2023-04-23T07:18:23.117Z,7.93
2023-04-23T07:21:27.695Z,9.48
2023-04-23T07:24:29.657Z,8.32
2023-04-23T07:27:31.455Z,9.32
2023-04-23T07:30:37.190Z,8.33
2023-04-23T07:33:39.056Z,7.60
2023-04-23T07:36:40.894Z,9.80
2023-04-23T07:39:44.187Z,8.45
2023-04-23T07:42:46.473Z,9.07
2023-04-23T07:45:48.443Z,9.73
2023-04-23T07:48:50.822Z,9.13
2023-04-23T07:51:52.993Z,8.75
2023-04-23T07:54:57.808Z,8.25
2023-04-23T07:57:59.596Z,8.40
2023-04-23T08:01:06.068Z,7.63
2023-04-23T08:04:08.297Z,10.20
2023-04-23T08:07:10.322Z,7.75
2023-04-23T08:10:12.285Z,7.47
2023-04-23T08:13:14.287Z,7.18
2023-04-23T08:16:16.112Z,7.63
2023-04-23T08:19:17.920Z,8.03
2023-04-23T08:22:20.418Z,6.35
2023-04-23T08:25:22.930Z,7.20
2023-04-23T08:28:24.806Z,6.28
2023-04-23T08:31:27.615Z,7.63
2023-04-23T08:34:29.536Z,8.17
2023-04-23T08:37:31.842Z,7.05
2023-04-23T08:40:34.249Z,6.97
2023-04-23T08:43:51.906Z,6.75
2023-04-23T08:46:58.434Z,7.10
2023-04-23T08:50:00.351Z,7.73
2023-04-23T08:53:02.176Z,5.75
2023-04-23T08:56:04.856Z,8.00
2023-04-23T08:59:08.136Z,7.50
2023-04-23T09:02:10.714Z,7.33
2023-04-23T09:05:13.185Z,7.30
2023-04-23T09:08:14.978Z,8.60
2023-04-23T09:11:16.723Z,7.00
2023-04-23T09:14:18.653Z,6.88
2023-04-23T09:17:24.439Z,6.77
2023-04-23T09:20:26.488Z,7.13
2023-04-23T09:23:28.272Z,8.10
2023-04-23T09:26:30.024Z,6.80
2023-04-23T09:29:32.203Z,7.00
2023-04-23T09:32:35.154Z,6.70
2023-04-23T09:35:39.083Z,6.10
2023-04-23T09:38:42.563Z,7.25
2023-04-23T09:41:46.514Z,7.22
2023-04-23T09:44:48.398Z,6.95
2023-04-23T09:47:54.630Z,7.60
2023-04-23T09:50:56.486Z,6.53
2023-04-23T09:53:58.817Z,6.38
2023-04-23T09:57:02.364Z,5.88
2023-04-23T10:00:26.204Z,5.97
2023-04-23T10:03:31.050Z,7.30
2023-04-23T10:06:44.458Z,9.03
2023-04-23T10:09:51.798Z,8.00
2023-04-23T10:12:57.405Z,6.70
2023-04-23T10:16:10.134Z,5.75
2023-04-23T10:19:19.229Z,6.20
2023-04-23T10:22:21.185Z,7.33
2023-04-23T10:25:23.402Z,6.03
2023-04-23T10:28:29.286Z,6.18
2023-04-23T10:31:31.745Z,6.38
2023-04-23T10:34:33.740Z,6.33
2023-04-23T10:37:36.237Z,5.17
2023-04-23T10:40:38.760Z,5.63
2023-04-23T10:43:40.531Z,7.00
2023-04-23T10:46:58.284Z,5.30
2023-04-23T10:50:06.156Z,6.27
2023-04-23T10:53:08.246Z,5.90
2023-04-23T10:56:10.388Z,6.47
2023-04-23T10:59:21.889Z,5.80
2023-04-23T11:02:24.678Z,6.05
2023-04-23T11:05:28.365Z,5.80
2023-04-23T11:08:33.669Z,7.03
2023-04-23T11:11:41.778Z,6.20
2023-04-23T11:14:52.928Z,5.55
2023-04-23T11:17:54.737Z,5.65
2023-04-23T11:20:57.104Z,6.83
2023-04-23T11:24:02.393Z,6.80
2023-04-23T11:27:08.210Z,5.90
2023-04-23T11:30:14.747Z,6.15
2023-04-23T11:33:16.587Z,6.00
2023-04-23T11:36:18.351Z,6.23
2023-04-23T11:39:27.256Z,7.57
2023-04-23T11:42:29.679Z,6.75
2023-04-23T11:45:31.539Z,5.90
2023-04-23T11:48:33.682Z,6.25
2023-04-23T11:51:36.723Z,6.57
2023-04-23T11:54:40.946Z,6.07
2023-04-23T11:57:43.813Z,6.95
2023-04-23T12:00:45.651Z,6.10
2023-04-23T12:03:49.648Z,6.68
2023-04-23T12:06:52.983Z,6.70
2023-04-23T12:09:59.306Z,6.70
2023-04-23T12:13:01.204Z,6.57
2023-04-23T12:16:03.901Z,7.18
2023-04-23T12:19:08.714Z,6.60
2023-04-23T12:22:10.458Z,5.73
2023-04-23T12:25:12.320Z,6.30
2023-04-23T12:28:14.118Z,6.40
2023-04-23T12:31:22.458Z,7.63
2023-04-23T12:34:25.238Z,8.70
2023-04-23T12:37:30.385Z,8.07
2023-04-23T12:40:32.422Z,6.70
2023-04-23T12:43:34.224Z,6.10
2023-04-23T12:46:36.777Z,7.20
2023-04-23T12:49:39.776Z,8.20
2023-04-23T12:52:42.747Z,6.47
2023-04-23T12:55:46.020Z,7.10
2023-04-23T12:58:48.263Z,8.35
2023-04-23T13:01:51.155Z,8.18
2023-04-23T13:04:59.702Z,6.50
2023-04-23T13:08:01.577Z,6.93
2023-04-23T13:11:03.393Z,7.27
2023-04-23T13:14:05.684Z,6.45
2023-04-23T13:17:07.459Z,8.68
2023-04-23T13:20:09.703Z,7.07
2023-04-23T13:23:12.435Z,5.93
2023-04-23T13:26:14.599Z,7.77
2023-04-23T13:29:16.549Z,6.28
2023-04-23T13:32:19.433Z,6.40
2023-04-23T13:35:22.365Z,5.72
2023-04-23T13:38:24.757Z,6.03
2023-04-23T13:41:26.513Z,8.00
2023-04-23T13:44:28.237Z,6.72
2023-04-23T13:47:33.426Z,7.75
2023-04-23T13:50:35.322Z,6.65
2023-04-23T13:53:37.390Z,7.13
2023-04-23T13:56:39.223Z,7.77
2023-04-23T13:59:41.118Z,5.95
2023-04-23T14:02:43.417Z,6.22
2023-04-23T14:05:45.353Z,6.05
2023-04-23T14:08:47.079Z,6.90
2023-04-23T14:11:48.930Z,6.20
2023-04-23T14:14:51.267Z,6.90
2023-04-23T14:17:53.270Z,7.32
2023-04-23T14:20:55.258Z,6.15
2023-04-23T14:24:01.740Z,6.73
2023-04-23T14:27:05.191Z,6.87
2023-04-23T14:30:14.116Z,6.68
2023-04-23T14:33:16.339Z,5.97
2023-04-23T14:36:18.219Z,6.88
2023-04-23T14:39:21.702Z,6.47
2023-04-23T14:42:23.556Z,7.23
2023-04-23T14:45:25.965Z,7.05
2023-04-23T14:48:27.829Z,7.35
2023-04-23T14:51:30.140Z,7.93
2023-04-23T14:54:32.050Z,7.10
2023-04-23T14:57:33.861Z,5.97
2023-04-23T15:00:35.968Z,7.43
2023-04-23T15:03:37.934Z,6.05
2023-04-23T15:06:40.660Z,7.95
2023-04-23T15:09:42.598Z,8.47
2023-04-23T15:12:53.569Z,8.07
2023-04-23T15:16:03.066Z,6.45
2023-04-23T15:19:10.312Z,7.25
2023-04-23T15:22:12.174Z,7.93
2023-04-23T15:25:14.129Z,6.43
2023-04-23T15:28:15.912Z,6.23
2023-04-23T15:31:18.014Z,6.72
2023-04-23T15:34:19.799Z,6.22
2023-04-23T15:37:23.734Z,6.25
2023-04-23T15:40:26.602Z,6.37
2023-04-23T15:43:28.427Z,6.83
2023-04-23T15:46:30.387Z,5.53
2023-04-23T15:49:32.225Z,7.30
2023-04-23T15:52:34.005Z,6.55
2023-04-23T15:55:35.949Z,6.10
2023-04-23T15:58:37.730Z,7.60
2023-04-23T16:01:40.090Z,7.32
2023-04-23T16:04:42.478Z,6.70
2023-04-23T16:07:45.081Z,6.93
2023-04-23T16:10:46.909Z,7.63
2023-04-23T16:13:49.004Z,6.73
2023-04-23T16:16:50.863Z,6.57
2023-04-23T16:19:52.726Z,6.70
2023-04-23T16:22:55.063Z,6.40
2023-04-23T16:25:57.386Z,6.47
2023-04-23T16:29:11.237Z,6.77
2023-04-23T16:32:21.112Z,7.72
2023-04-23T16:35:22.958Z,6.85
2023-04-23T16:38:24.747Z,7.47
2023-04-23T16:41:27.477Z,7.33
2023-04-23T16:44:29.287Z,6.83
2023-04-23T16:47:31.045Z,7.28
2023-04-23T16:50:33.842Z,6.40
2023-04-23T16:53:36.646Z,6.80
2023-04-23T16:56:38.480Z,6.20
2023-04-23T16:59:41.161Z,8.17
2023-04-23T17:02:43.018Z,7.03
2023-04-23T17:05:44.917Z,8.95
2023-04-23T17:08:46.857Z,6.72
2023-04-23T17:11:48.705Z,6.87
2023-04-23T17:14:50.730Z,7.10
2023-04-23T17:17:53.138Z,7.18
2023-04-23T17:20:55.121Z,8.75
2023-04-23T17:23:57.491Z,7.65
2023-04-23T17:26:59.688Z,7.27
2023-04-23T17:30:01.554Z,10.23
2023-04-23T17:33:03.284Z,9.30
2023-04-23T17:36:05.169Z,8.02
2023-04-23T17:39:07.730Z,8.02
2023-04-23T17:42:09.775Z,6.97
2023-04-23T17:45:12.077Z,8.07
2023-04-23T17:48:14.946Z,6.72
2023-04-23T17:51:16.807Z,7.80
2023-04-23T17:54:18.661Z,9.50
2023-04-23T17:57:20.743Z,7.33
2023-04-23T18:00:23.174Z,7.27
2023-04-23T18:03:25.408Z,6.32
2023-04-23T18:06:27.445Z,10.38
2023-04-23T18:09:29.307Z,6.97
2023-04-23T18:12:31.596Z,8.57
2023-04-23T18:15:33.426Z,6.83
2023-04-23T18:18:35.302Z,7.18
2023-04-23T18:21:38.059Z,7.25
2023-04-23T18:24:39.801Z,7.10
2023-04-23T18:27:41.826Z,9.23
2023-04-23T18:30:43.771Z,7.97
2023-04-23T18:33:52.801Z,7.82
2023-04-23T18:36:54.965Z,6.45
2023-04-23T18:39:58.660Z,7.95
2023-04-23T18:43:00.769Z,8.47
2023-04-23T18:46:02.593Z,6.97
2023-04-23T18:49:26.232Z,9.25
2023-04-23T18:52:28.242Z,7.85
2023-04-23T18:55:30.114Z,7.22
2023-04-23T18:58:32.043Z,10.60
2023-04-23T19:01:33.903Z,8.43
2023-04-23T19:04:36.251Z,7.63
2023-04-23T19:07:40.634Z,8.77
2023-04-23T19:10:42.459Z,9.20
2023-04-23T19:13:44.552Z,8.53
2023-04-23T19:16:46.814Z,9.10
2023-04-23T19:19:48.588Z,8.05
2023-04-23T19:22:50.624Z,7.65
2023-04-23T19:25:52.444Z,8.15
2023-04-23T19:28:54.248Z,8.57
2023-04-23T19:31:56.506Z,8.47
2023-04-23T19:34:58.405Z,7.85
2023-04-23T19:38:00.420Z,11.38
2023-04-23T19:41:02.343Z,9.38
2023-04-23T19:44:04.345Z,8.60
2023-04-23T19:47:06.359Z,8.27
2023-04-23T19:50:09.904Z,6.90
2023-04-23T19:53:12.229Z,7.72
2023-04-23T19:56:15.548Z,7.15
2023-04-23T19:59:21.243Z,8.40
2023-04-23T20:02:23.884Z,7.37
2023-04-23T20:05:25.790Z,8.52
2023-04-23T20:08:29.762Z,8.20
2023-04-23T20:11:31.830Z,8.65
2023-04-23T20:14:33.688Z,8.80
2023-04-23T20:17:35.642Z,8.07
2023-04-23T20:20:40.020Z,7.68
2023-04-23T20:23:41.968Z,7.97
2023-04-23T20:26:43.838Z,7.55
2023-04-23T20:29:46.446Z,8.17
2023-04-23T20:32:48.357Z,8.47
2023-04-23T20:35:50.607Z,8.50
2023-04-23T20:38:54.417Z,8.43
2023-04-23T20:41:58.026Z,8.65
2023-04-23T20:45:00.786Z,8.53
2023-04-23T20:48:03.916Z,8.07
2023-04-23T20:51:05.991Z,7.40
2023-04-23T20:54:08.000Z,9.45
2023-04-23T20:57:09.962Z,7.28
2023-04-23T21:00:12.267Z,8.57
2023-04-23T21:03:14.166Z,9.43
2023-04-23T21:06:16.089Z,7.40
2023-04-23T21:09:18.171Z,7.97
2023-04-23T21:12:19.960Z,8.80
2023-04-23T21:15:21.901Z,10.53
2023-04-23T21:18:24.108Z,8.90
2023-04-23T21:21:28.156Z,8.63
2023-04-23T21:24:29.920Z,7.13
2023-04-23T21:27:31.773Z,9.07
2023-04-23T21:30:42.801Z,9.10
2023-04-23T21:33:44.598Z,6.63
2023-04-23T21:36:46.348Z,6.88
2023-04-23T21:39:48.462Z,8.68
2023-04-23T21:42:50.333Z,8.20
2023-04-23T21:45:52.206Z,8.87
2023-04-23T21:48:54.064Z,7.93
2023-04-23T21:51:56.168Z,9.25
2023-04-23T21:54:57.981Z,8.70
2023-04-23T21:58:13.928Z,8.98
2023-04-23T22:01:18.472Z,7.90
2023-04-23T22:04:22.450Z,8.40
2023-04-23T22:07:24.450Z,9.07
2023-04-23T22:10:26.264Z,9.65
2023-04-23T22:13:28.405Z,7.78
2023-04-23T22:16:30.385Z,8.67
2023-04-23T22:19:32.452Z,9.00
2023-04-23T22:22:34.707Z,9.57
2023-04-23T22:25:36.553Z,8.05
2023-04-23T22:28:38.349Z,8.50
2023-04-23T22:31:40.262Z,14.13
2023-04-23T22:34:42.017Z,8.03
2023-04-23T22:37:43.850Z,9.00
2023-04-23T22:40:45.836Z,8.57
2023-04-23T22:43:47.604Z,8.75
2023-04-23T22:46:53.442Z,10.00
2023-04-23T22:49:55.258Z,8.67
2023-04-23T22:52:57.213Z,10.15
2023-04-23T22:55:59.021Z,9.75
2023-04-23T22:59:01.533Z,8.38
2023-04-23T23:02:03.350Z,7.70
2023-04-23T23:05:05.618Z,7.87
2023-04-23T23:08:07.405Z,9.25
2023-04-23T23:11:09.398Z,9.30
2023-04-23T23:14:11.592Z,7.80
2023-04-23T23:17:13.401Z,9.83
2023-04-23T23:20:15.477Z,9.47
2023-04-23T23:23:17.227Z,7.82
2023-04-23T23:26:20.107Z,9.38
2023-04-23T23:29:23.131Z,7.78
2023-04-23T23:32:29.378Z,7.10
2023-04-23T23:35:31.262Z,8.03
2023-04-23T23:38:33.689Z,8.95
2023-04-23T23:41:35.618Z,10.10
2023-04-23T23:44:37.687Z,7.85
2023-04-23T23:47:42.526Z,8.40
2023-04-23T23:50:44.305Z,7.73
2023-04-23T23:53:46.031Z,12.00
2023-04-23T23:56:47.856Z,9.27
2023-04-23T23:59:49.768Z,8.82
